Time;durP1;ratioP1;P1;durP2;ratioP2;P2;SDS_P1;SDS_P2;PMS_P1;PMS_P2;Temp;Humidity;BMP_temperature;BMP_pressure;BME280_temperature;BME280_humidity;BME280_pressure;Samples;Min_cycle;Max_cycle;Signal;HPM_P1;HPM_P2
2023/03/28 00:01:01;;;;;;;24.00;9.60;;;;;;;-0.49;69.01;98672.99;107801;1308;23000;-41
2023/03/28 00:03:27;;;;;;;;;;;;;;;-0.50;68.86;98673.02;107823;1308;22439;-41
2023/03/28 00:05:59;;;;;;;20.80;9.50;;;;;;;-0.52;69.08;98669.27;107780;1308;22242;-41
2023/03/28 00:08:27;;;;;;;26.30;10.60;;;;;;;-0.53;69.24;98666.20;107790;1308;22443;-41
2023/03/28 00:11:01;;;;;;;27.50;10.50;;;;;;;-0.56;68.67;98661.09;107805;1307;22241;-41
2023/03/28 00:13:28;;;;;;;20.50;9.90;;;;;;;-0.54;69.05;98661.73;107464;1303;22462;-40
2023/03/28 00:15:54;;;;;;;;;;;;;;;-0.57;69.66;98658.89;107826;1308;23222;-39
2023/03/28 00:18:19;;;;;;;25.80;10.80;;;;;;;-0.59;69.79;98656.49;107780;1307;22521;-40
2023/03/28 00:20:45;;;;;;;27.50;10.90;;;;;;;-0.61;70.08;98656.20;107782;1307;22433;-40
2023/03/28 00:23:11;;;;;;;27.50;12.80;;;;;;;-0.62;69.89;98652.95;107804;1307;22240;-40
2023/03/28 00:25:40;;;;;;;25.40;10.80;;;;;;;-0.65;70.27;98653.88;107800;1308;23099;-42
2023/03/28 00:28:07;;;;;;;26.60;10.90;;;;;;;-0.68;70.40;98656.85;107840;1307;22270;-40
2023/03/28 00:30:32;;;;;;;26.40;11.60;;;;;;;-0.69;70.09;98655.84;107792;1307;22234;-41
2023/03/28 00:32:58;;;;;;;27.10;11.10;;;;;;;-0.69;69.97;98654.63;107751;1308;22566;-40
2023/03/28 00:35:23;;;;;;;23.10;10.50;;;;;;;-0.68;69.79;98651.87;107545;1307;22980;-40
2023/03/28 00:37:56;;;;;;;26.00;11.50;;;;;;;-0.71;69.95;98649.34;107804;1308;22250;-40
2023/03/28 00:40:24;;;;;;;27.40;11.10;;;;;;;-0.74;70.17;98644.58;107797;1308;23244;-40
2023/03/28 00:42:50;;;;;;;22.30;10.50;;;;;;;-0.78;70.41;98645.17;107793;1308;22327;-40
2023/03/28 00:45:15;;;;;;;26.70;11.60;;;;;;;-0.82;69.99;98646.61;107792;1307;22571;-40
2023/03/28 00:48:07;;;;;;;21.40;10.20;;;;;;;-0.82;70.14;98648.36;107787;1308;22258;-41
2023/03/28 00:50:39;;;;;;;25.10;10.80;;;;;;;-0.84;70.13;98648.02;107809;1307;22656;-41
2023/03/28 00:53:20;;;;;;;23.00;10.20;;;;;;;-0.86;69.59;98647.73;107802;1307;22605;-41
2023/03/28 00:55:50;;;;;;;24.40;10.40;;;;;;;-0.90;70.07;98648.50;107799;1308;22471;-41
2023/03/28 00:58:26;;;;;;;23.00;10.30;;;;;;;-0.90;70.19;98645.59;107792;1307;22250;-41
2023/03/28 01:00:55;;;;;;;30.70;10.80;;;;;;;-0.90;70.27;98646.09;107791;1307;22318;-42
2023/03/28 01:03:26;;;;;;;21.70;9.70;;;;;;;-0.88;70.11;98646.94;107787;1307;22253;-41
2023/03/28 01:05:52;;;;;;;25.20;9.70;;;;;;;-0.86;69.74;98647.74;107804;1308;22232;-41
2023/03/28 01:08:21;;;;;;;25.90;9.90;;;;;;;-0.86;69.54;98651.52;107813;1308;22508;-41
2023/03/28 01:10:47;;;;;;;19.20;9.20;;;;;;;-0.84;69.56;98655.44;107800;1308;22427;-41
2023/03/28 01:13:16;;;;;;;20.20;9.20;;;;;;;-0.81;68.89;98656.42;107798;1308;23056;-41
2023/03/28 01:15:43;;;;;;;19.80;8.20;;;;;;;-0.81;68.40;98654.68;107828;1308;22427;-41
2023/03/28 01:18:10;;;;;;;23.50;9.10;;;;;;;-0.79;67.86;98649.99;107809;1308;23166;-41
2023/03/28 01:21:01;;;;;;;20.60;9.30;;;;;;;-0.81;67.49;98649.35;107823;1307;22472;-41
2023/03/28 01:23:54;;;;;;;22.60;9.90;;;;;;;-0.91;67.09;98643.71;107790;1308;22270;-41
2023/03/28 01:26:25;;;;;;;26.90;9.70;;;;;;;-0.91;66.84;98634.93;107809;1308;22262;-41
2023/03/28 01:29:07;;;;;;;22.70;10.40;;;;;;;-0.90;66.42;98633.53;107798;1307;22266;-42
2023/03/28 01:31:54;;;;;;;26.80;10.30;;;;;;;-0.88;66.34;98626.42;107781;1308;22920;-41
2023/03/28 01:34:55;;;;;;;21.20;9.60;;;;;;;-0.82;66.40;98622.54;107818;1308;22231;-41
2023/03/28 01:37:48;;;;;;;25.90;10.90;;;;;;;-0.77;66.11;98615.89;107770;1297;22408;-41
2023/03/28 01:40:47;;;;;;;22.80;10.20;;;;;;;-0.73;66.16;98610.31;107809;1308;23030;-41
2023/03/28 01:43:19;;;;;;;22.90;9.60;;;;;;;-0.71;66.20;98606.81;107802;1308;23034;-41
2023/03/28 01:46:00;;;;;;;25.30;10.20;;;;;;;-0.69;66.25;98605.39;107805;1308;23307;-41
2023/03/28 01:48:43;;;;;;;25.20;10.40;;;;;;;-0.70;65.85;98605.23;107818;1308;23192;-41
2023/03/28 01:51:32;;;;;;;31.70;11.70;;;;;;;-0.70;65.67;98613.68;107799;1308;22481;-41
2023/03/28 01:54:11;;;;;;;33.00;11.00;;;;;;;-0.68;65.32;98606.08;107811;1308;22234;-42
2023/03/28 01:56:49;;;;;;;27.00;11.50;;;;;;;-0.68;64.91;98601.95;107815;1308;22237;-41
2023/03/28 01:59:28;;;;;;;25.70;10.70;;;;;;;-0.64;65.18;98605.83;107838;1308;22238;-41
2023/03/28 02:02:10;;;;;;;22.30;10.80;;;;;;;-0.64;64.99;98607.88;107827;1308;23044;-40
2023/03/28 02:04:38;;;;;;;22.80;10.00;;;;;;;-0.66;64.81;98604.48;107795;1308;22406;-42
2023/03/28 02:07:07;;;;;;;27.20;10.80;;;;;;;-0.66;64.94;98605.01;107791;1308;22460;-42
2023/03/28 02:09:36;;;;;;;24.30;11.40;;;;;;;-0.72;66.17;98599.95;107801;1308;23226;-41
2023/03/28 02:12:09;;;;;;;30.00;11.80;;;;;;;-0.71;67.00;98598.05;107812;1308;22416;-42
2023/03/28 02:14:41;;;;;;;25.20;11.60;;;;;;;-0.69;68.09;98591.82;107803;1308;22629;-41
2023/03/28 02:17:14;;;;;;;24.60;11.60;;;;;;;-0.69;68.59;98588.71;107804;1308;22597;-40
2023/03/28 02:19:45;;;;;;;22.80;10.70;;;;;;;-0.69;69.05;98590.95;107779;1308;22229;-39
2023/03/28 02:22:43;;;;;;;25.80;11.40;;;;;;;-0.67;69.50;98588.50;107822;1308;22400;-40
2023/03/28 02:25:09;;;;;;;24.40;11.30;;;;;;;-0.65;69.33;98589.14;107808;1308;22299;-40
2023/03/28 02:27:36;;;;;;;25.20;11.40;;;;;;;-0.63;70.07;98588.08;107790;1308;22981;-41
2023/03/28 02:30:01;;;;;;;28.40;11.90;;;;;;;-0.62;70.46;98584.95;107801;1308;22252;-40
2023/03/28 02:32:27;;;;;;;27.90;11.10;;;;;;;-0.55;69.99;98588.23;107804;1308;22493;-40
2023/03/28 02:34:54;;;;;;;25.60;11.00;;;;;;;-0.51;70.39;98587.13;107793;1308;22407;-40
2023/03/28 02:37:50;;;;;;;23.00;10.80;;;;;;;-0.47;70.28;98587.71;107807;1308;22260;-43
2023/03/28 02:44:26;;;;;;;21.10;9.80;;;;;;;-0.37;70.76;98576.64;106708;1313;560575;-43
2023/03/28 02:47:10;;;;;;;23.40;10.70;;;;;;;-0.38;71.31;98577.70;107254;1314;22412;-42
2023/03/28 02:50:08;;;;;;;20.50;10.50;;;;;;;-0.35;71.91;98577.83;107229;1314;22272;-42
2023/03/28 02:52:50;;;;;;;28.80;11.50;;;;;;;-0.32;72.50;98573.11;107208;1314;22532;-41
2023/03/28 02:55:33;;;;;;;19.30;10.30;;;;;;;-0.30;72.48;98573.55;107236;1314;22251;-40
2023/03/28 02:58:36;;;;;;;24.60;11.00;;;;;;;-0.25;72.23;98570.20;107289;1312;124698;-42
2023/03/28 03:01:05;;;;;;;22.20;9.80;;;;;;;-0.22;73.20;98569.08;107188;1312;22533;-42
2023/03/28 03:03:32;;;;;;;19.30;9.10;;;;;;;-0.25;74.54;98570.17;107405;1311;23261;-42
2023/03/28 03:05:59;;;;;;;20.10;9.70;;;;;;;-0.17;74.17;98568.98;107381;1311;23257;-42
2023/03/28 03:08:26;;;;;;;19.80;7.80;;;;;;;-0.11;74.09;98566.06;107506;1310;22251;-42
2023/03/28 03:10:52;;;;;;;16.40;7.70;;;;;;;-0.16;75.34;98564.63;107502;1311;22425;-42
2023/03/28 03:13:18;;;;;;;18.40;8.40;;;;;;;-0.17;76.17;98565.15;107504;1311;22398;-41
2023/03/28 03:15:45;;;;;;;15.40;7.80;;;;;;;-0.14;76.22;98563.20;107424;1300;22519;-43
2023/03/28 03:18:11;;;;;;;15.20;7.50;;;;;;;-0.12;76.32;98564.37;107426;1311;22251;-42
2023/03/28 03:20:39;;;;;;;14.30;6.80;;;;;;;-0.12;77.05;98568.85;107432;1311;22509;-42
2023/03/28 03:23:06;;;;;;;15.70;6.30;;;;;;;-0.07;76.82;98568.20;107430;1311;22252;-40
2023/03/28 03:25:32;;;;;;;12.90;6.90;;;;;;;-0.06;77.68;98568.18;107404;1311;22315;-43
2023/03/28 03:27:58;;;;;;;14.00;6.30;;;;;;;-0.04;77.63;98567.09;107433;1311;22289;-42
2023/03/28 03:30:23;;;;;;;12.40;6.20;;;;;;;0.00;77.39;98568.55;107273;1311;22859;-42
2023/03/28 03:32:49;;;;;;;16.30;6.40;;;;;;;0.02;77.48;98567.14;107435;1311;22202;-42
2023/03/28 03:35:14;;;;;;;13.10;6.50;;;;;;;-0.06;79.37;98565.09;107485;1310;22265;-42
2023/03/28 03:37:40;;;;;;;15.00;6.20;;;;;;;0.04;78.25;98563.30;107479;1311;22650;-42
2023/03/28 03:40:08;;;;;;;12.00;6.40;;;;;;;-0.01;79.29;98562.20;107502;1311;22254;-42
2023/03/28 03:42:34;;;;;;;12.30;6.20;;;;;;;-0.09;80.09;98560.34;107544;1310;22281;-43
2023/03/28 03:44:59;;;;;;;15.00;6.00;;;;;;;-0.09;79.96;98555.16;107554;1310;22316;-40
2023/03/28 03:47:24;;;;;;;12.10;6.50;;;;;;;-0.07;79.68;98548.92;107544;1310;22430;-40
2023/03/28 03:49:50;;;;;;;12.60;6.70;;;;;;;-0.07;80.35;98547.17;107544;1310;22268;-41
2023/03/28 03:52:15;;;;;;;16.90;7.40;;;;;;;-0.07;81.04;98552.19;107522;1310;23019;-40
2023/03/28 03:54:40;;;;;;;14.50;6.90;;;;;;;-0.11;81.54;98548.83;107536;1310;23373;-41
2023/03/28 03:57:06;;;;;;;13.70;7.00;;;;;;;-0.08;81.45;98554.95;107250;1310;22467;-41
2023/03/28 03:59:31;;;;;;;11.50;6.80;;;;;;;-0.05;81.02;98553.68;107519;1310;23050;-41
2023/03/28 04:01:56;;;;;;;11.90;6.10;;;;;;;-0.01;81.22;98548.58;107548;1311;22238;-41
2023/03/28 04:04:22;;;;;;;12.00;6.90;;;;;;;0.05;81.02;98543.27;107563;1310;22269;-41
2023/03/28 04:06:47;;;;;;;11.90;6.60;;;;;;;0.08;81.14;98539.75;107543;1310;22954;-41
2023/03/28 04:09:13;;;;;;;11.10;6.60;;;;;;;0.10;81.10;98542.98;107536;1310;22419;-42
2023/03/28 04:11:38;;;;;;;12.40;6.90;;;;;;;0.10;81.61;98546.95;107541;1310;22527;-41
2023/03/28 04:14:03;;;;;;;9.80;7.00;;;;;;;0.14;81.85;98544.27;107545;1310;23251;-41
2023/03/28 04:16:29;;;;;;;12.80;7.10;;;;;;;0.20;81.20;98545.67;107570;1310;23091;-41
2023/03/28 04:18:55;;;;;;;13.50;7.60;;;;;;;0.23;81.43;98547.64;107565;1310;22948;-42
2023/03/28 04:21:26;;;;;;;11.30;7.40;;;;;;;0.24;82.00;98549.85;107578;1310;23092;-41
2023/03/28 04:23:51;;;;;;;12.90;7.30;;;;;;;0.27;82.13;98550.98;107550;1310;22253;-42
2023/03/28 04:26:24;;;;;;;16.20;9.00;;;;;;;0.25;82.64;98551.20;107550;1310;22943;-43
2023/03/28 04:28:53;;;;;;;14.40;8.60;;;;;;;0.26;82.66;98551.88;107570;1310;22479;-43
2023/03/28 04:31:20;;;;;;;16.20;8.60;;;;;;;0.26;82.76;98553.42;107560;1310;22348;-42
2023/03/28 04:33:46;;;;;;;14.90;8.10;;;;;;;0.21;83.86;98559.41;107565;1310;22254;-42
2023/03/28 04:36:15;;;;;;;13.50;6.60;;;;;;;0.16;84.24;98556.26;107563;1310;22691;-43
2023/03/28 04:38:44;;;;;;;10.20;6.20;;;;;;;0.23;83.19;98557.64;107561;1310;22360;-43
2023/03/28 04:41:10;;;;;;;9.70;6.20;;;;;;;0.28;82.41;98558.03;107559;1310;22449;-41
2023/03/28 04:43:35;;;;;;;12.80;6.50;;;;;;;0.29;82.71;98556.79;107574;1310;22215;-41
2023/03/28 04:46:01;;;;;;;9.60;5.90;;;;;;;0.33;82.46;98559.99;107560;1310;22299;-42
2023/03/28 04:48:26;;;;;;;9.70;6.40;;;;;;;0.31;83.11;98560.54;107562;1310;22355;-42
2023/03/28 04:50:52;;;;;;;8.70;5.90;;;;;;;0.37;83.27;98561.80;107567;1310;22434;-42
2023/03/28 04:53:18;;;;;;;12.20;5.50;;;;;;;0.45;83.21;98567.10;107557;1310;22259;-41
2023/03/28 04:55:49;;;;;;;12.10;5.40;;;;;;;0.49;83.25;98571.98;107569;1310;22466;-42
2023/03/28 04:58:16;;;;;;;10.50;5.80;;;;;;;0.48;83.21;98568.23;107564;1310;22253;-41
2023/03/28 05:00:41;;;;;;;8.20;5.50;;;;;;;0.52;83.01;98570.70;107553;1310;22262;-41
2023/03/28 05:03:17;;;;;;;11.10;6.10;;;;;;;0.47;83.96;98568.06;107568;1309;22259;-42
2023/03/28 05:05:44;;;;;;;12.30;6.50;;;;;;;0.47;84.30;98567.91;107547;1310;22293;-41
2023/03/28 05:08:11;;;;;;;15.60;7.20;;;;;;;0.52;83.46;98567.77;107583;1310;22444;-41
2023/03/28 05:10:37;;;;;;;9.50;7.50;;;;;;;0.52;84.06;98568.46;107638;1309;22286;-41
2023/03/28 05:13:03;;;;;;;12.90;8.70;;;;;;;0.52;84.65;98569.64;107607;1310;22921;-41
2023/03/28 05:15:28;;;;;;;12.50;8.30;;;;;;;0.54;85.07;98567.38;107587;1309;22248;-41
2023/03/28 05:17:53;;;;;;;10.50;7.70;;;;;;;0.47;84.86;98569.98;107607;1310;22725;-41
2023/03/28 05:20:19;;;;;;;6.50;5.70;;;;;;;0.46;84.45;98577.23;107588;1309;22410;-41
2023/03/28 05:22:46;;;;;;;8.20;5.90;;;;;;;0.44;83.82;98577.10;107598;1309;22267;-41
2023/03/28 05:25:11;;;;;;;7.80;5.50;;;;;;;0.42;83.63;98574.55;107599;1310;22248;-41
2023/03/28 05:27:37;;;;;;;8.70;5.30;;;;;;;0.37;83.37;98573.48;107591;1309;23073;-41
2023/03/28 05:30:05;;;;;;;7.00;4.40;;;;;;;0.33;83.69;98571.86;107618;1309;22251;-41
2023/03/28 05:32:31;;;;;;;5.80;4.40;;;;;;;0.37;83.18;98571.60;107602;1310;22255;-41
2023/03/28 05:34:56;;;;;;;6.80;4.00;;;;;;;0.41;82.64;98574.78;107624;1309;22449;-41
2023/03/28 05:37:21;;;;;;;4.70;3.00;;;;;;;0.48;81.86;98573.39;107583;1309;22597;-42
2023/03/28 05:39:47;;;;;;;6.40;3.30;;;;;;;0.50;81.45;98573.85;107396;1310;22912;-42
2023/03/28 05:42:14;;;;;;;3.20;2.90;;;;;;;0.45;81.52;98577.42;107613;1309;22246;-42
2023/03/28 05:44:39;;;;;;;9.60;4.20;;;;;;;0.47;81.15;98578.06;107634;1309;22263;-42
2023/03/28 05:47:04;;;;;;;5.10;3.60;;;;;;;0.53;80.60;98580.16;107602;1309;22346;-43
2023/03/28 05:49:30;;;;;;;11.80;4.50;;;;;;;0.55;79.99;98587.19;107603;1309;23560;-40
2023/03/28 05:51:55;;;;;;;15.00;5.80;;;;;;;0.47;79.76;98589.45;107592;1309;22320;-40
2023/03/28 05:54:20;;;;;;;8.70;3.30;;;;;;;0.47;79.17;98583.95;107616;1309;22426;-41
